Terminal Aerodrome Forecast
Issued by NWS Birmingham, AL

Home | Current Version | Previous Version | Text Only | Print | Product List | Glossary On
Versions: 1 2 3 4 5 6 7 8 9 10 11 12 13 14
088
FTUS44 KBMX 142320
TAFBHM
TAF
KBHM 142320Z 1500/1524 21003KT P6SM BKN250
     FM150200 33005KT P6SM BKN250
     FM151500 32008KT P6SM BKN250=

USA.gov is the U.S. government's official web portal to all federal, state and local government web resources and services.